A80 TRACON Summary / KATL TAF
ATL TRACON Summary:
Expect thunderstorms to weaken and move northeast of ATL by 02zShowers are still possible until 05z. Once the thunderstorm activity diminishes, expect low-VFR conditions until MVFR ceilings form after sunrise. Surface winds will be south-southwest and gusty with the convection and will shift back to the south-southeast after 04z at 5-8kts. Flight hazards in the TRACON airspace outside convection: None expected.

Updated: 4/30/2016 8:15 PM
ATL Terminal Aerodrome Forecast:

FTUS31 KATL 302324
KATL 302321Z 0100/0206 19008G16KT 6SM BR VCSH BKN050
      TEMPO 0100/0102 5SM -TSRA BR BKN050CB
     FM010400 17005KT P6SM SCT060 BKN250
     FM011400 21006KT P6SM BKN015
     FM011600 23009KT P6SM VCSH BKN025
     FM011800 23010KT 4SM -TSRA BKN030CB
     FM012100 23008KT P6SM VCSH OVC040
ATL TRACON Area Remark:
SCATTERED TS EXPECTED NW/N/NE UNTIL 02Z.
Convective Gate Forecast / Icing Gate Forecast / Vertical Wind Profile (click on image to enlarge)
Convective Gate Forecast
Icing Gate Forecast
table with gate forecasts (convective and CCFP) used April - November while icing gate forecasts are issued
AIRMETs & SIGMETS/ Southeast Radar loop / Satellite Image (click on image to enlarge)

Southeast Radar Loop

 



USA.gov is the U.S. government's official web portal to all federal, state and local government web resources and services.